Powell, Tennessee
Current Conditions -  °F | °C
As of 11:06 AM on Wednesday 22 Oct 2014 (Local Time) from KOQT Reporting Station
Overcast Overcast  
Wind Chill: 53°   Ceiling: 3000
Heat Index: 53°   Visibility: 10mi
Dew Point: 40°   Wind: 6mph
Humidity: 61%   Direction: NA
Pressure: 30.25"   Gusts: NA
Location:  36.03°N, 84.03°W
Report Text: KOQT 221506Z AUTO VRB05KT 10SM BKN030 OVC034 12/04 A3025 RMK AO2 T01170044
Loading
Personal Weather Stations






























Interactive Weather Map
Tropical Storm Tracking
New forecast layout! Learn more

10-Day Weather Forecast

Advertisements
Track Severe Weather on mobile